sensor_id;sensor_type;location;lat;lon;timestamp;P1;durP1;ratioP1;P2;durP2;ratioP2
10985;SDS011;5546;48.714;8.738;2024-03-02T00:00:37;5.37;;;3.63;;
10985;SDS011;5546;48.714;8.738;2024-03-02T00:03:03;4.73;;;3.50;;
10985;SDS011;5546;48.714;8.738;2024-03-02T00:05:29;4.97;;;3.67;;
10985;SDS011;5546;48.714;8.738;2024-03-02T00:07:55;5.47;;;3.63;;
10985;SDS011;5546;48.714;8.738;2024-03-02T00:10:26;4.57;;;3.10;;
10985;SDS011;5546;48.714;8.738;2024-03-02T00:13:00;3.60;;;3.03;;
10985;SDS011;5546;48.714;8.738;2024-03-02T00:15:42;3.87;;;3.23;;
10985;SDS011;5546;48.714;8.738;2024-03-02T00:18:12;4.53;;;3.30;;
10985;SDS011;5546;48.714;8.738;2024-03-02T00:20:40;3.57;;;3.20;;
10985;SDS011;5546;48.714;8.738;2024-03-02T00:23:07;6.00;;;3.50;;
10985;SDS011;5546;48.714;8.738;2024-03-02T00:25:36;4.40;;;3.57;;
10985;SDS011;5546;48.714;8.738;2024-03-02T00:30:54;8.33;;;4.67;;
10985;SDS011;5546;48.714;8.738;2024-03-02T00:33:42;4.53;;;3.53;;
10985;SDS011;5546;48.714;8.738;2024-03-02T00:36:12;3.80;;;3.40;;
10985;SDS011;5546;48.714;8.738;2024-03-02T00:38:46;5.20;;;4.13;;
10985;SDS011;5546;48.714;8.738;2024-03-02T00:41:19;6.97;;;3.43;;
10985;SDS011;5546;48.714;8.738;2024-03-02T00:44:06;4.60;;;3.80;;
10985;SDS011;5546;48.714;8.738;2024-03-02T00:46:34;5.20;;;3.57;;
10985;SDS011;5546;48.714;8.738;2024-03-02T00:49:18;6.40;;;4.00;;
10985;SDS011;5546;48.714;8.738;2024-03-02T00:51:45;8.57;;;4.23;;
10985;SDS011;5546;48.714;8.738;2024-03-02T00:54:15;7.53;;;4.60;;
10985;SDS011;5546;48.714;8.738;2024-03-02T00:56:44;10.27;;;5.20;;
10985;SDS011;5546;48.714;8.738;2024-03-02T00:59:11;7.57;;;5.10;;
10985;SDS011;5546;48.714;8.738;2024-03-02T01:01:37;7.33;;;5.13;;
10985;SDS011;5546;48.714;8.738;2024-03-02T01:04:03;7.50;;;4.50;;
10985;SDS011;5546;48.714;8.738;2024-03-02T01:06:28;7.03;;;3.90;;
10985;SDS011;5546;48.714;8.738;2024-03-02T01:08:57;6.37;;;4.43;;
10985;SDS011;5546;48.714;8.738;2024-03-02T01:11:22;6.90;;;4.43;;
10985;SDS011;5546;48.714;8.738;2024-03-02T01:13:48;5.73;;;4.50;;
10985;SDS011;5546;48.714;8.738;2024-03-02T01:16:14;5.57;;;3.90;;
10985;SDS011;5546;48.714;8.738;2024-03-02T01:18:40;7.77;;;4.30;;
10985;SDS011;5546;48.714;8.738;2024-03-02T01:21:06;6.00;;;3.90;;
10985;SDS011;5546;48.714;8.738;2024-03-02T01:23:32;7.20;;;5.03;;
10985;SDS011;5546;48.714;8.738;2024-03-02T01:25:58;6.40;;;4.90;;
10985;SDS011;5546;48.714;8.738;2024-03-02T01:28:23;7.50;;;5.40;;
10985;SDS011;5546;48.714;8.738;2024-03-02T01:30:49;7.57;;;5.67;;
10985;SDS011;5546;48.714;8.738;2024-03-02T01:33:14;9.03;;;6.13;;
10985;SDS011;5546;48.714;8.738;2024-03-02T01:35:41;7.27;;;5.70;;
10985;SDS011;5546;48.714;8.738;2024-03-02T01:38:06;9.03;;;6.20;;
10985;SDS011;5546;48.714;8.738;2024-03-02T01:40:35;10.63;;;6.10;;
10985;SDS011;5546;48.714;8.738;2024-03-02T01:43:01;11.13;;;6.40;;
10985;SDS011;5546;48.714;8.738;2024-03-02T01:45:28;8.43;;;6.23;;
10985;SDS011;5546;48.714;8.738;2024-03-02T01:47:54;8.97;;;6.40;;
10985;SDS011;5546;48.714;8.738;2024-03-02T01:50:31;10.00;;;6.97;;
10985;SDS011;5546;48.714;8.738;2024-03-02T01:52:57;10.07;;;7.20;;
10985;SDS011;5546;48.714;8.738;2024-03-02T01:55:23;8.23;;;5.67;;
10985;SDS011;5546;48.714;8.738;2024-03-02T01:57:49;8.23;;;5.40;;
10985;SDS011;5546;48.714;8.738;2024-03-02T02:00:16;8.93;;;5.63;;
10985;SDS011;5546;48.714;8.738;2024-03-02T02:02:42;9.37;;;5.53;;
10985;SDS011;5546;48.714;8.738;2024-03-02T02:05:08;8.17;;;5.80;;
10985;SDS011;5546;48.714;8.738;2024-03-02T02:07:34;10.20;;;5.63;;
10985;SDS011;5546;48.714;8.738;2024-03-02T02:10:00;8.93;;;6.53;;
10985;SDS011;5546;48.714;8.738;2024-03-02T02:12:26;8.97;;;6.40;;
10985;SDS011;5546;48.714;8.738;2024-03-02T02:14:52;8.97;;;6.17;;
10985;SDS011;5546;48.714;8.738;2024-03-02T02:17:17;8.63;;;6.50;;
10985;SDS011;5546;48.714;8.738;2024-03-02T02:19:43;8.37;;;5.87;;
10985;SDS011;5546;48.714;8.738;2024-03-02T02:22:09;9.90;;;7.17;;
10985;SDS011;5546;48.714;8.738;2024-03-02T02:24:35;11.47;;;6.73;;
10985;SDS011;5546;48.714;8.738;2024-03-02T02:27:04;8.97;;;6.70;;
10985;SDS011;5546;48.714;8.738;2024-03-02T02:29:29;8.50;;;6.20;;
10985;SDS011;5546;48.714;8.738;2024-03-02T02:31:55;8.37;;;5.27;;
10985;SDS011;5546;48.714;8.738;2024-03-02T02:34:20;8.40;;;4.87;;
10985;SDS011;5546;48.714;8.738;2024-03-02T02:36:46;9.73;;;4.70;;
10985;SDS011;5546;48.714;8.738;2024-03-02T02:39:13;6.13;;;4.33;;
10985;SDS011;5546;48.714;8.738;2024-03-02T02:41:42;8.13;;;4.77;;
10985;SDS011;5546;48.714;8.738;2024-03-02T02:44:08;8.60;;;4.60;;
10985;SDS011;5546;48.714;8.738;2024-03-02T02:46:36;7.20;;;5.40;;
10985;SDS011;5546;48.714;8.738;2024-03-02T02:49:03;6.97;;;4.63;;
10985;SDS011;5546;48.714;8.738;2024-03-02T02:51:28;6.30;;;4.33;;
10985;SDS011;5546;48.714;8.738;2024-03-02T02:53:54;8.87;;;4.83;;
10985;SDS011;5546;48.714;8.738;2024-03-02T02:56:19;9.47;;;4.63;;
10985;SDS011;5546;48.714;8.738;2024-03-02T02:58:45;7.00;;;4.70;;
10985;SDS011;5546;48.714;8.738;2024-03-02T03:01:10;11.17;;;7.13;;
10985;SDS011;5546;48.714;8.738;2024-03-02T03:03:36;7.57;;;6.23;;
10985;SDS011;5546;48.714;8.738;2024-03-02T03:06:01;8.63;;;6.47;;
10985;SDS011;5546;48.714;8.738;2024-03-02T03:08:27;9.43;;;6.67;;
10985;SDS011;5546;48.714;8.738;2024-03-02T03:10:53;7.93;;;6.20;;
10985;SDS011;5546;48.714;8.738;2024-03-02T03:13:19;6.73;;;4.97;;
10985;SDS011;5546;48.714;8.738;2024-03-02T03:15:44;8.37;;;4.70;;
10985;SDS011;5546;48.714;8.738;2024-03-02T03:18:10;7.07;;;5.07;;
10985;SDS011;5546;48.714;8.738;2024-03-02T03:20:36;10.13;;;6.37;;
10985;SDS011;5546;48.714;8.738;2024-03-02T03:23:01;13.87;;;7.47;;
10985;SDS011;5546;48.714;8.738;2024-03-02T03:25:28;10.20;;;6.80;;
10985;SDS011;5546;48.714;8.738;2024-03-02T03:27:54;9.43;;;5.70;;
10985;SDS011;5546;48.714;8.738;2024-03-02T03:30:20;12.20;;;8.10;;
10985;SDS011;5546;48.714;8.738;2024-03-02T03:32:45;7.43;;;5.23;;
10985;SDS011;5546;48.714;8.738;2024-03-02T03:35:13;8.20;;;5.70;;
10985;SDS011;5546;48.714;8.738;2024-03-02T03:37:40;7.67;;;5.27;;
10985;SDS011;5546;48.714;8.738;2024-03-02T03:40:05;8.47;;;6.03;;
10985;SDS011;5546;48.714;8.738;2024-03-02T03:42:34;9.20;;;6.77;;
10985;SDS011;5546;48.714;8.738;2024-03-02T03:45:04;11.23;;;6.90;;
10985;SDS011;5546;48.714;8.738;2024-03-02T03:47:33;10.97;;;7.50;;
10985;SDS011;5546;48.714;8.738;2024-03-02T03:49:59;11.43;;;7.73;;
10985;SDS011;5546;48.714;8.738;2024-03-02T03:52:24;6.77;;;4.90;;
10985;SDS011;5546;48.714;8.738;2024-03-02T03:54:50;11.13;;;7.03;;
10985;SDS011;5546;48.714;8.738;2024-03-02T03:57:16;6.20;;;4.73;;
10985;SDS011;5546;48.714;8.738;2024-03-02T03:59:42;7.23;;;4.57;;
10985;SDS011;5546;48.714;8.738;2024-03-02T04:02:08;8.40;;;5.23;;
10985;SDS011;5546;48.714;8.738;2024-03-02T04:04:34;6.80;;;5.00;;
10985;SDS011;5546;48.714;8.738;2024-03-02T04:06:59;10.60;;;6.73;;
10985;SDS011;5546;48.714;8.738;2024-03-02T04:09:25;12.77;;;7.60;;
10985;SDS011;5546;48.714;8.738;2024-03-02T04:11:50;10.83;;;5.63;;
10985;SDS011;5546;48.714;8.738;2024-03-02T04:14:16;11.10;;;6.80;;
10985;SDS011;5546;48.714;8.738;2024-03-02T04:16:42;10.17;;;6.53;;
10985;SDS011;5546;48.714;8.738;2024-03-02T04:19:07;8.80;;;6.87;;
10985;SDS011;5546;48.714;8.738;2024-03-02T04:21:33;11.57;;;7.33;;
10985;SDS011;5546;48.714;8.738;2024-03-02T04:23:58;11.50;;;8.03;;
10985;SDS011;5546;48.714;8.738;2024-03-02T04:26:24;12.40;;;8.00;;
10985;SDS011;5546;48.714;8.738;2024-03-02T04:28:51;10.57;;;7.67;;
10985;SDS011;5546;48.714;8.738;2024-03-02T04:31:16;11.83;;;7.67;;
10985;SDS011;5546;48.714;8.738;2024-03-02T04:33:42;10.73;;;7.60;;
10985;SDS011;5546;48.714;8.738;2024-03-02T04:36:08;11.20;;;7.43;;
10985;SDS011;5546;48.714;8.738;2024-03-02T04:38:34;10.10;;;7.43;;
10985;SDS011;5546;48.714;8.738;2024-03-02T04:41:00;8.70;;;5.73;;
10985;SDS011;5546;48.714;8.738;2024-03-02T04:43:26;11.47;;;6.33;;
10985;SDS011;5546;48.714;8.738;2024-03-02T04:45:51;11.27;;;6.50;;
10985;SDS011;5546;48.714;8.738;2024-03-02T04:48:17;12.30;;;6.33;;
10985;SDS011;5546;48.714;8.738;2024-03-02T04:50:43;11.47;;;7.00;;
10985;SDS011;5546;48.714;8.738;2024-03-02T04:53:09;12.67;;;8.10;;
10985;SDS011;5546;48.714;8.738;2024-03-02T04:55:34;11.90;;;7.10;;
10985;SDS011;5546;48.714;8.738;2024-03-02T04:58:00;10.63;;;7.77;;
10985;SDS011;5546;48.714;8.738;2024-03-02T05:00:25;10.77;;;7.40;;
10985;SDS011;5546;48.714;8.738;2024-03-02T05:02:51;14.20;;;8.37;;
10985;SDS011;5546;48.714;8.738;2024-03-02T05:05:17;11.07;;;7.70;;
10985;SDS011;5546;48.714;8.738;2024-03-02T05:07:43;14.77;;;8.50;;
10985;SDS011;5546;48.714;8.738;2024-03-02T05:10:09;16.47;;;8.37;;
10985;SDS011;5546;48.714;8.738;2024-03-02T05:12:36;11.03;;;7.80;;
10985;SDS011;5546;48.714;8.738;2024-03-02T05:15:08;11.77;;;7.83;;
10985;SDS011;5546;48.714;8.738;2024-03-02T05:17:41;12.10;;;8.23;;
10985;SDS011;5546;48.714;8.738;2024-03-02T05:20:10;11.20;;;7.80;;
10985;SDS011;5546;48.714;8.738;2024-03-02T05:22:36;11.23;;;8.67;;
10985;SDS011;5546;48.714;8.738;2024-03-02T05:25:02;11.07;;;7.57;;
10985;SDS011;5546;48.714;8.738;2024-03-02T05:27:29;11.87;;;7.03;;
10985;SDS011;5546;48.714;8.738;2024-03-02T05:29:55;9.80;;;7.50;;
10985;SDS011;5546;48.714;8.738;2024-03-02T05:32:20;10.60;;;7.53;;
10985;SDS011;5546;48.714;8.738;2024-03-02T05:34:46;15.53;;;8.40;;
10985;SDS011;5546;48.714;8.738;2024-03-02T05:37:11;10.80;;;7.87;;
10985;SDS011;5546;48.714;8.738;2024-03-02T05:39:37;13.37;;;8.37;;
10985;SDS011;5546;48.714;8.738;2024-03-02T05:42:03;13.33;;;8.90;;
10985;SDS011;5546;48.714;8.738;2024-03-02T05:44:29;15.07;;;9.00;;
10985;SDS011;5546;48.714;8.738;2024-03-02T05:46:55;19.00;;;10.90;;
10985;SDS011;5546;48.714;8.738;2024-03-02T05:49:20;48.10;;;24.07;;
10985;SDS011;5546;48.714;8.738;2024-03-02T05:51:46;107.20;;;52.90;;
10985;SDS011;5546;48.714;8.738;2024-03-02T05:54:12;18.77;;;11.40;;
10985;SDS011;5546;48.714;8.738;2024-03-02T05:56:37;15.17;;;9.83;;
10985;SDS011;5546;48.714;8.738;2024-03-02T05:59:03;12.90;;;9.17;;
10985;SDS011;5546;48.714;8.738;2024-03-02T06:01:47;16.67;;;9.17;;
10985;SDS011;5546;48.714;8.738;2024-03-02T06:04:15;14.77;;;10.87;;
10985;SDS011;5546;48.714;8.738;2024-03-02T06:06:41;13.37;;;7.73;;
10985;SDS011;5546;48.714;8.738;2024-03-02T06:09:07;11.47;;;7.70;;
10985;SDS011;5546;48.714;8.738;2024-03-02T06:11:33;18.80;;;10.77;;
10985;SDS011;5546;48.714;8.738;2024-03-02T06:14:05;16.43;;;12.37;;
10985;SDS011;5546;48.714;8.738;2024-03-02T06:16:33;13.73;;;8.80;;
10985;SDS011;5546;48.714;8.738;2024-03-02T06:18:59;13.13;;;8.70;;
10985;SDS011;5546;48.714;8.738;2024-03-02T06:21:25;17.37;;;10.27;;
10985;SDS011;5546;48.714;8.738;2024-03-02T06:23:51;11.57;;;8.23;;
10985;SDS011;5546;48.714;8.738;2024-03-02T06:26:17;13.67;;;7.50;;
10985;SDS011;5546;48.714;8.738;2024-03-02T06:28:43;12.70;;;7.50;;
10985;SDS011;5546;48.714;8.738;2024-03-02T06:31:09;10.97;;;7.87;;
10985;SDS011;5546;48.714;8.738;2024-03-02T06:33:37;11.00;;;7.57;;
10985;SDS011;5546;48.714;8.738;2024-03-02T06:36:03;12.27;;;7.33;;
10985;SDS011;5546;48.714;8.738;2024-03-02T06:38:29;11.73;;;8.03;;
10985;SDS011;5546;48.714;8.738;2024-03-02T06:40:57;12.00;;;7.13;;
10985;SDS011;5546;48.714;8.738;2024-03-02T06:43:22;12.97;;;7.83;;
10985;SDS011;5546;48.714;8.738;2024-03-02T06:45:48;13.53;;;7.57;;
10985;SDS011;5546;48.714;8.738;2024-03-02T06:48:15;11.10;;;8.37;;
10985;SDS011;5546;48.714;8.738;2024-03-02T06:50:44;11.57;;;8.00;;
10985;SDS011;5546;48.714;8.738;2024-03-02T06:53:13;11.87;;;8.07;;
10985;SDS011;5546;48.714;8.738;2024-03-02T06:55:42;12.50;;;8.20;;
10985;SDS011;5546;48.714;8.738;2024-03-02T06:58:09;13.63;;;8.03;;
10985;SDS011;5546;48.714;8.738;2024-03-02T07:00:35;12.30;;;7.83;;
10985;SDS011;5546;48.714;8.738;2024-03-02T07:03:00;12.13;;;7.67;;
10985;SDS011;5546;48.714;8.738;2024-03-02T07:05:26;9.80;;;7.33;;
10985;SDS011;5546;48.714;8.738;2024-03-02T07:07:52;10.57;;;7.67;;
10985;SDS011;5546;48.714;8.738;2024-03-02T07:10:17;12.97;;;7.57;;
10985;SDS011;5546;48.714;8.738;2024-03-02T07:12:43;9.17;;;6.93;;
10985;SDS011;5546;48.714;8.738;2024-03-02T07:15:09;9.23;;;6.63;;
10985;SDS011;5546;48.714;8.738;2024-03-02T07:17:53;12.43;;;7.43;;
10985;SDS011;5546;48.714;8.738;2024-03-02T07:20:19;14.70;;;7.07;;
10985;SDS011;5546;48.714;8.738;2024-03-02T07:22:45;12.83;;;8.13;;
10985;SDS011;5546;48.714;8.738;2024-03-02T07:25:10;15.57;;;7.97;;
10985;SDS011;5546;48.714;8.738;2024-03-02T07:27:36;11.40;;;8.53;;
10985;SDS011;5546;48.714;8.738;2024-03-02T07:30:02;14.47;;;8.50;;
10985;SDS011;5546;48.714;8.738;2024-03-02T07:32:28;13.80;;;8.13;;
10985;SDS011;5546;48.714;8.738;2024-03-02T07:34:54;48.23;;;25.60;;
10985;SDS011;5546;48.714;8.738;2024-03-02T07:37:20;14.73;;;9.53;;
10985;SDS011;5546;48.714;8.738;2024-03-02T07:39:46;25.77;;;13.63;;
10985;SDS011;5546;48.714;8.738;2024-03-02T07:42:12;15.13;;;10.97;;
10985;SDS011;5546;48.714;8.738;2024-03-02T07:44:38;17.87;;;11.10;;
10985;SDS011;5546;48.714;8.738;2024-03-02T07:47:03;10.40;;;7.83;;
10985;SDS011;5546;48.714;8.738;2024-03-02T07:49:29;8.50;;;7.10;;
10985;SDS011;5546;48.714;8.738;2024-03-02T07:51:54;6.87;;;6.00;;
10985;SDS011;5546;48.714;8.738;2024-03-02T07:54:20;9.60;;;6.37;;
10985;SDS011;5546;48.714;8.738;2024-03-02T07:56:45;7.57;;;6.63;;
10985;SDS011;5546;48.714;8.738;2024-03-02T07:59:12;6.70;;;5.53;;
10985;SDS011;5546;48.714;8.738;2024-03-02T08:01:38;5.95;;;5.03;;
10985;SDS011;5546;48.714;8.738;2024-03-02T08:04:03;6.60;;;5.43;;
10985;SDS011;5546;48.714;8.738;2024-03-02T08:06:29;6.60;;;5.90;;
10985;SDS011;5546;48.714;8.738;2024-03-02T08:08:55;6.77;;;6.07;;
10985;SDS011;5546;48.714;8.738;2024-03-02T08:11:24;7.80;;;6.83;;
10985;SDS011;5546;48.714;8.738;2024-03-02T08:13:50;7.70;;;6.90;;
10985;SDS011;5546;48.714;8.738;2024-03-02T08:16:17;8.60;;;7.27;;
10985;SDS011;5546;48.714;8.738;2024-03-02T08:18:49;7.13;;;6.43;;
10985;SDS011;5546;48.714;8.738;2024-03-02T08:21:15;10.00;;;6.90;;
10985;SDS011;5546;48.714;8.738;2024-03-02T08:23:41;7.77;;;6.97;;
10985;SDS011;5546;48.714;8.738;2024-03-02T08:26:08;8.35;;;6.32;;
10985;SDS011;5546;48.714;8.738;2024-03-02T08:28:34;7.03;;;6.10;;
10985;SDS011;5546;48.714;8.738;2024-03-02T08:31:02;6.88;;;6.18;;
10985;SDS011;5546;48.714;8.738;2024-03-02T08:33:28;7.10;;;6.40;;
10985;SDS011;5546;48.714;8.738;2024-03-02T08:35:53;11.02;;;6.65;;
10985;SDS011;5546;48.714;8.738;2024-03-02T08:38:19;9.57;;;7.40;;
10985;SDS011;5546;48.714;8.738;2024-03-02T08:40:44;8.38;;;7.50;;
10985;SDS011;5546;48.714;8.738;2024-03-02T08:43:10;8.47;;;7.20;;
10985;SDS011;5546;48.714;8.738;2024-03-02T08:45:36;8.33;;;6.80;;
10985;SDS011;5546;48.714;8.738;2024-03-02T08:48:02;9.00;;;7.30;;
10985;SDS011;5546;48.714;8.738;2024-03-02T08:50:28;7.72;;;6.70;;
10985;SDS011;5546;48.714;8.738;2024-03-02T08:52:55;8.25;;;7.00;;
10985;SDS011;5546;48.714;8.738;2024-03-02T08:55:20;10.57;;;6.90;;
10985;SDS011;5546;48.714;8.738;2024-03-02T08:57:46;8.82;;;7.85;;
10985;SDS011;5546;48.714;8.738;2024-03-02T09:00:11;8.35;;;7.32;;
10985;SDS011;5546;48.714;8.738;2024-03-02T09:02:37;9.95;;;7.85;;
10985;SDS011;5546;48.714;8.738;2024-03-02T09:05:03;8.65;;;7.80;;
10985;SDS011;5546;48.714;8.738;2024-03-02T09:07:30;9.13;;;8.15;;
10985;SDS011;5546;48.714;8.738;2024-03-02T09:09:55;9.50;;;8.50;;
10985;SDS011;5546;48.714;8.738;2024-03-02T09:12:21;9.77;;;8.30;;
10985;SDS011;5546;48.714;8.738;2024-03-02T09:14:47;11.93;;;9.97;;
10985;SDS011;5546;48.714;8.738;2024-03-02T09:17:13;10.57;;;8.93;;
10985;SDS011;5546;48.714;8.738;2024-03-02T09:19:38;11.47;;;9.50;;
10985;SDS011;5546;48.714;8.738;2024-03-02T09:22:04;12.70;;;10.07;;
10985;SDS011;5546;48.714;8.738;2024-03-02T09:24:30;13.23;;;9.77;;
10985;SDS011;5546;48.714;8.738;2024-03-02T09:26:58;10.50;;;8.50;;
10985;SDS011;5546;48.714;8.738;2024-03-02T09:29:23;14.23;;;10.00;;
10985;SDS011;5546;48.714;8.738;2024-03-02T09:31:49;10.70;;;8.93;;
10985;SDS011;5546;48.714;8.738;2024-03-02T09:34:15;10.97;;;8.93;;
10985;SDS011;5546;48.714;8.738;2024-03-02T09:36:41;11.07;;;8.50;;
10985;SDS011;5546;48.714;8.738;2024-03-02T09:39:07;9.97;;;8.00;;
10985;SDS011;5546;48.714;8.738;2024-03-02T09:41:34;9.47;;;7.67;;
10985;SDS011;5546;48.714;8.738;2024-03-02T09:44:01;11.50;;;8.50;;
10985;SDS011;5546;48.714;8.738;2024-03-02T09:46:27;10.37;;;7.20;;
10985;SDS011;5546;48.714;8.738;2024-03-02T09:48:53;9.93;;;7.97;;
10985;SDS011;5546;48.714;8.738;2024-03-02T09:51:19;8.40;;;7.50;;
10985;SDS011;5546;48.714;8.738;2024-03-02T09:53:44;8.90;;;7.23;;
10985;SDS011;5546;48.714;8.738;2024-03-02T09:56:11;9.17;;;6.50;;
10985;SDS011;5546;48.714;8.738;2024-03-02T09:58:38;8.53;;;6.60;;
10985;SDS011;5546;48.714;8.738;2024-03-02T10:01:05;7.57;;;6.00;;
10985;SDS011;5546;48.714;8.738;2024-03-02T10:03:31;8.73;;;6.38;;
10985;SDS011;5546;48.714;8.738;2024-03-02T10:06:18;6.60;;;5.95;;
10985;SDS011;5546;48.714;8.738;2024-03-02T10:08:43;9.50;;;6.05;;
10985;SDS011;5546;48.714;8.738;2024-03-02T10:11:09;8.13;;;6.50;;
10985;SDS011;5546;48.714;8.738;2024-03-02T10:13:35;6.60;;;5.90;;
10985;SDS011;5546;48.714;8.738;2024-03-02T10:16:10;5.97;;;5.28;;
10985;SDS011;5546;48.714;8.738;2024-03-02T10:18:37;6.13;;;4.88;;
10985;SDS011;5546;48.714;8.738;2024-03-02T10:21:14;5.78;;;5.10;;
10985;SDS011;5546;48.714;8.738;2024-03-02T10:23:40;5.40;;;4.80;;
10985;SDS011;5546;48.714;8.738;2024-03-02T10:26:26;7.60;;;4.80;;
10985;SDS011;5546;48.714;8.738;2024-03-02T10:28:51;5.68;;;5.05;;
10985;SDS011;5546;48.714;8.738;2024-03-02T10:31:24;5.13;;;4.63;;
10985;SDS011;5546;48.714;8.738;2024-03-02T10:33:52;4.90;;;4.40;;
10985;SDS011;5546;48.714;8.738;2024-03-02T10:36:19;4.80;;;4.28;;
10985;SDS011;5546;48.714;8.738;2024-03-02T10:38:45;5.80;;;4.60;;
10985;SDS011;5546;48.714;8.738;2024-03-02T10:41:16;6.45;;;3.80;;
10985;SDS011;5546;48.714;8.738;2024-03-02T10:43:43;4.60;;;4.20;;
10985;SDS011;5546;48.714;8.738;2024-03-02T10:46:09;8.10;;;4.15;;
10985;SDS011;5546;48.714;8.738;2024-03-02T10:48:36;3.97;;;3.63;;
10985;SDS011;5546;48.714;8.738;2024-03-02T10:51:04;4.10;;;3.30;;
10985;SDS011;5546;48.714;8.738;2024-03-02T10:53:30;4.20;;;3.80;;
10985;SDS011;5546;48.714;8.738;2024-03-02T10:55:57;4.07;;;3.67;;
10985;SDS011;5546;48.714;8.738;2024-03-02T10:58:31;3.65;;;3.15;;
10985;SDS011;5546;48.714;8.738;2024-03-02T11:01:01;3.75;;;3.42;;
10985;SDS011;5546;48.714;8.738;2024-03-02T11:03:29;4.90;;;3.20;;
10985;SDS011;5546;48.714;8.738;2024-03-02T11:05:58;3.75;;;3.15;;
10985;SDS011;5546;48.714;8.738;2024-03-02T11:08:25;3.25;;;2.92;;
10985;SDS011;5546;48.714;8.738;2024-03-02T11:10:58;3.47;;;2.90;;
10985;SDS011;5546;48.714;8.738;2024-03-02T11:13:39;3.50;;;3.15;;
10985;SDS011;5546;48.714;8.738;2024-03-02T11:19:00;3.63;;;2.30;;
10985;SDS011;5546;48.714;8.738;2024-03-02T11:21:31;4.10;;;3.40;;
10985;SDS011;5546;48.714;8.738;2024-03-02T11:23:58;3.28;;;2.63;;
10985;SDS011;5546;48.714;8.738;2024-03-02T11:26:23;4.20;;;2.90;;
10985;SDS011;5546;48.714;8.738;2024-03-02T11:28:49;3.72;;;3.00;;
10985;SDS011;5546;48.714;8.738;2024-03-02T11:31:15;4.45;;;3.30;;
10985;SDS011;5546;48.714;8.738;2024-03-02T11:33:40;2.88;;;2.63;;
10985;SDS011;5546;48.714;8.738;2024-03-02T11:36:06;3.40;;;2.92;;
10985;SDS011;5546;48.714;8.738;2024-03-02T11:38:33;3.55;;;2.97;;
10985;SDS011;5546;48.714;8.738;2024-03-02T11:41:00;7.25;;;3.17;;
10985;SDS011;5546;48.714;8.738;2024-03-02T11:43:39;5.20;;;3.17;;
10985;SDS011;5546;48.714;8.738;2024-03-02T11:46:05;3.95;;;3.03;;
10985;SDS011;5546;48.714;8.738;2024-03-02T11:48:35;2.13;;;1.75;;
10985;SDS011;5546;48.714;8.738;2024-03-02T11:51:02;2.40;;;2.20;;
10985;SDS011;5546;48.714;8.738;2024-03-02T11:53:28;2.20;;;1.83;;
10985;SDS011;5546;48.714;8.738;2024-03-02T11:55:56;1.92;;;1.55;;
10985;SDS011;5546;48.714;8.738;2024-03-02T11:58:23;2.95;;;1.58;;
10985;SDS011;5546;48.714;8.738;2024-03-02T12:00:52;2.25;;;1.42;;
10985;SDS011;5546;48.714;8.738;2024-03-02T12:03:20;1.42;;;1.27;;
10985;SDS011;5546;48.714;8.738;2024-03-02T12:05:51;2.00;;;1.80;;
10985;SDS011;5546;48.714;8.738;2024-03-02T12:08:18;1.52;;;1.42;;
10985;SDS011;5546;48.714;8.738;2024-03-02T12:10:55;1.70;;;1.60;;
10985;SDS011;5546;48.714;8.738;2024-03-02T12:13:22;1.77;;;1.45;;
10985;SDS011;5546;48.714;8.738;2024-03-02T12:15:48;1.73;;;1.63;;
10985;SDS011;5546;48.714;8.738;2024-03-02T12:18:19;1.75;;;1.65;;
10985;SDS011;5546;48.714;8.738;2024-03-02T12:20:45;2.13;;;1.63;;
10985;SDS011;5546;48.714;8.738;2024-03-02T12:23:10;1.60;;;1.40;;
10985;SDS011;5546;48.714;8.738;2024-03-02T12:25:36;3.22;;;1.70;;
10985;SDS011;5546;48.714;8.738;2024-03-02T12:28:02;1.73;;;1.55;;
10985;SDS011;5546;48.714;8.738;2024-03-02T12:30:32;2.60;;;1.70;;
10985;SDS011;5546;48.714;8.738;2024-03-02T12:33:00;1.60;;;1.50;;
10985;SDS011;5546;48.714;8.738;2024-03-02T12:35:26;3.03;;;2.05;;
10985;SDS011;5546;48.714;8.738;2024-03-02T12:37:52;2.10;;;1.80;;
10985;SDS011;5546;48.714;8.738;2024-03-02T12:40:19;2.03;;;1.70;;
10985;SDS011;5546;48.714;8.738;2024-03-02T12:42:46;2.97;;;1.60;;
10985;SDS011;5546;48.714;8.738;2024-03-02T12:45:12;2.17;;;1.80;;
10985;SDS011;5546;48.714;8.738;2024-03-02T12:47:39;1.77;;;1.30;;
10985;SDS011;5546;48.714;8.738;2024-03-02T12:50:05;1.50;;;1.40;;
10985;SDS011;5546;48.714;8.738;2024-03-02T12:52:32;1.50;;;1.40;;
10985;SDS011;5546;48.714;8.738;2024-03-02T12:55:02;1.70;;;1.60;;
10985;SDS011;5546;48.714;8.738;2024-03-02T12:57:30;2.17;;;1.98;;
10985;SDS011;5546;48.714;8.738;2024-03-02T13:00:00;1.60;;;1.50;;
10985;SDS011;5546;48.714;8.738;2024-03-02T13:02:27;1.60;;;1.40;;
10985;SDS011;5546;48.714;8.738;2024-03-02T13:04:54;2.50;;;1.60;;
10985;SDS011;5546;48.714;8.738;2024-03-02T13:07:20;1.92;;;1.73;;
10985;SDS011;5546;48.714;8.738;2024-03-02T13:09:50;1.83;;;1.50;;
10985;SDS011;5546;48.714;8.738;2024-03-02T13:12:16;6.05;;;1.77;;
10985;SDS011;5546;48.714;8.738;2024-03-02T13:14:42;2.97;;;1.70;;
10985;SDS011;5546;48.714;8.738;2024-03-02T13:17:08;2.78;;;1.58;;
10985;SDS011;5546;48.714;8.738;2024-03-02T13:19:34;2.20;;;1.85;;
10985;SDS011;5546;48.714;8.738;2024-03-02T13:21:59;1.83;;;1.70;;
10985;SDS011;5546;48.714;8.738;2024-03-02T13:24:27;4.50;;;1.70;;
10985;SDS011;5546;48.714;8.738;2024-03-02T13:26:55;3.33;;;2.00;;
10985;SDS011;5546;48.714;8.738;2024-03-02T13:29:23;2.20;;;2.00;;
10985;SDS011;5546;48.714;8.738;2024-03-02T13:31:49;2.25;;;1.60;;
10985;SDS011;5546;48.714;8.738;2024-03-02T13:34:15;2.20;;;2.00;;
10985;SDS011;5546;48.714;8.738;2024-03-02T13:36:40;2.03;;;1.85;;
10985;SDS011;5546;48.714;8.738;2024-03-02T13:39:06;3.05;;;2.00;;
10985;SDS011;5546;48.714;8.738;2024-03-02T13:41:34;2.25;;;2.00;;
10985;SDS011;5546;48.714;8.738;2024-03-02T13:44:00;3.42;;;2.28;;
10985;SDS011;5546;48.714;8.738;2024-03-02T13:46:26;2.10;;;1.92;;
10985;SDS011;5546;48.714;8.738;2024-03-02T13:48:52;2.28;;;1.98;;
10985;SDS011;5546;48.714;8.738;2024-03-02T13:51:17;2.38;;;2.17;;
10985;SDS011;5546;48.714;8.738;2024-03-02T13:53:43;3.38;;;2.30;;
10985;SDS011;5546;48.714;8.738;2024-03-02T13:56:08;2.15;;;1.95;;
10985;SDS011;5546;48.714;8.738;2024-03-02T13:58:34;4.88;;;2.13;;
10985;SDS011;5546;48.714;8.738;2024-03-02T14:01:00;1.92;;;1.58;;
10985;SDS011;5546;48.714;8.738;2024-03-02T14:03:26;2.50;;;2.30;;
10985;SDS011;5546;48.714;8.738;2024-03-02T14:05:53;2.58;;;2.05;;
10985;SDS011;5546;48.714;8.738;2024-03-02T14:08:19;36.10;;;4.57;;
10985;SDS011;5546;48.714;8.738;2024-03-02T14:10:45;3.53;;;1.80;;
10985;SDS011;5546;48.714;8.738;2024-03-02T14:13:10;2.97;;;1.80;;
10985;SDS011;5546;48.714;8.738;2024-03-02T14:15:36;3.35;;;1.83;;
10985;SDS011;5546;48.714;8.738;2024-03-02T14:18:04;5.55;;;1.50;;
10985;SDS011;5546;48.714;8.738;2024-03-02T14:20:30;1.80;;;1.70;;
10985;SDS011;5546;48.714;8.738;2024-03-02T14:22:57;2.03;;;1.60;;
10985;SDS011;5546;48.714;8.738;2024-03-02T14:25:24;1.63;;;1.47;;
10985;SDS011;5546;48.714;8.738;2024-03-02T14:27:50;4.37;;;2.07;;
10985;SDS011;5546;48.714;8.738;2024-03-02T14:30:16;2.47;;;1.73;;
10985;SDS011;5546;48.714;8.738;2024-03-02T14:32:41;2.87;;;1.90;;
10985;SDS011;5546;48.714;8.738;2024-03-02T14:35:07;2.80;;;1.77;;
10985;SDS011;5546;48.714;8.738;2024-03-02T14:37:35;3.43;;;1.70;;
10985;SDS011;5546;48.714;8.738;2024-03-02T14:40:01;1.70;;;1.50;;
10985;SDS011;5546;48.714;8.738;2024-03-02T14:42:31;1.80;;;1.37;;
10985;SDS011;5546;48.714;8.738;2024-03-02T14:44:57;4.87;;;1.83;;
10985;SDS011;5546;48.714;8.738;2024-03-02T14:47:22;1.70;;;1.60;;
10985;SDS011;5546;48.714;8.738;2024-03-02T14:49:49;3.67;;;1.93;;
10985;SDS011;5546;48.714;8.738;2024-03-02T14:52:15;3.40;;;1.83;;
10985;SDS011;5546;48.714;8.738;2024-03-02T14:54:43;2.70;;;1.93;;
10985;SDS011;5546;48.714;8.738;2024-03-02T14:57:09;2.10;;;1.70;;
10985;SDS011;5546;48.714;8.738;2024-03-02T14:59:35;2.47;;;1.90;;